sensor_id;sensor_type;location;lat;lon;timestamp;pressure;altitude;pressure_sealevel;temperature;humidity
64078;BME280;51039;49.696;10.808;2023-06-26T00:02:08;98369.09;;;18.02;80.50
64078;BME280;51039;49.696;10.808;2023-06-26T00:04:33;98373.72;;;17.85;80.77
64078;BME280;51039;49.696;10.808;2023-06-26T00:07:00;98369.84;;;17.76;81.10
64078;BME280;51039;49.696;10.808;2023-06-26T00:09:26;98373.38;;;17.81;80.86
64078;BME280;51039;49.696;10.808;2023-06-26T00:11:51;98370.84;;;17.70;81.51
64078;BME280;51039;49.696;10.808;2023-06-26T00:14:17;98384.16;;;17.64;82.67
64078;BME280;51039;49.696;10.808;2023-06-26T00:16:45;98372.31;;;17.60;83.35
64078;BME280;51039;49.696;10.808;2023-06-26T00:19:11;98374.34;;;17.53;83.60
64078;BME280;51039;49.696;10.808;2023-06-26T00:21:36;98374.06;;;17.50;84.51
64078;BME280;51039;49.696;10.808;2023-06-26T00:24:01;98368.19;;;17.53;84.47
64078;BME280;51039;49.696;10.808;2023-06-26T00:26:27;98369.75;;;17.49;85.03
64078;BME280;51039;49.696;10.808;2023-06-26T00:28:52;98372.19;;;17.50;85.00
64078;BME280;51039;49.696;10.808;2023-06-26T00:31:17;98367.88;;;17.49;85.13
64078;BME280;51039;49.696;10.808;2023-06-26T00:33:43;98371.63;;;17.48;85.17
64078;BME280;51039;49.696;10.808;2023-06-26T00:36:08;98370.00;;;17.47;85.14
64078;BME280;51039;49.696;10.808;2023-06-26T00:38:34;98377.69;;;17.43;85.13
64078;BME280;51039;49.696;10.808;2023-06-26T00:41:00;98373.41;;;17.42;85.23
64078;BME280;51039;49.696;10.808;2023-06-26T00:43:25;98363.44;;;17.38;85.83
64078;BME280;51039;49.696;10.808;2023-06-26T00:45:50;98375.09;;;17.26;86.40
64078;BME280;51039;49.696;10.808;2023-06-26T00:48:16;98375.25;;;17.20;86.27
64078;BME280;51039;49.696;10.808;2023-06-26T00:50:42;98371.53;;;17.21;86.61
64078;BME280;51039;49.696;10.808;2023-06-26T00:53:09;98384.00;;;17.15;87.69
64078;BME280;51039;49.696;10.808;2023-06-26T00:55:35;98382.31;;;17.09;87.90
64078;BME280;51039;49.696;10.808;2023-06-26T00:58:01;98374.78;;;17.06;88.68
64078;BME280;51039;49.696;10.808;2023-06-26T01:00:26;98374.44;;;17.02;89.03
64078;BME280;51039;49.696;10.808;2023-06-26T01:02:52;98376.22;;;16.97;89.32
64078;BME280;51039;49.696;10.808;2023-06-26T01:05:17;98378.00;;;16.91;89.38
64078;BME280;51039;49.696;10.808;2023-06-26T01:07:47;98368.75;;;16.82;89.53
64078;BME280;51039;49.696;10.808;2023-06-26T01:10:13;98377.50;;;16.77;89.54
64078;BME280;51039;49.696;10.808;2023-06-26T01:12:39;98379.84;;;16.74;89.59
64078;BME280;51039;49.696;10.808;2023-06-26T01:15:05;98384.28;;;16.68;89.55
64078;BME280;51039;49.696;10.808;2023-06-26T01:17:31;98374.66;;;16.67;89.66
64078;BME280;51039;49.696;10.808;2023-06-26T01:19:58;98365.56;;;16.68;89.25
64078;BME280;51039;49.696;10.808;2023-06-26T01:25:12;98373.44;;;16.58;89.58
64078;BME280;51039;49.696;10.808;2023-06-26T01:27:46;98375.53;;;16.56;89.51
64078;BME280;51039;49.696;10.808;2023-06-26T01:30:13;98373.09;;;16.54;89.49
64078;BME280;51039;49.696;10.808;2023-06-26T01:32:41;98373.25;;;16.47;89.29
64078;BME280;51039;49.696;10.808;2023-06-26T01:35:07;98365.94;;;16.43;89.30
64078;BME280;51039;49.696;10.808;2023-06-26T01:37:33;98368.69;;;16.31;89.63
64078;BME280;51039;49.696;10.808;2023-06-26T01:39:58;98367.38;;;16.34;89.37
64078;BME280;51039;49.696;10.808;2023-06-26T01:42:24;98364.97;;;16.32;89.09
64078;BME280;51039;49.696;10.808;2023-06-26T01:44:49;98352.97;;;16.35;88.73
64078;BME280;51039;49.696;10.808;2023-06-26T01:47:19;98366.47;;;16.28;88.94
64078;BME280;51039;49.696;10.808;2023-06-26T01:49:56;98365.56;;;16.22;88.87
64078;BME280;51039;49.696;10.808;2023-06-26T01:55:02;98362.81;;;16.17;88.97
64078;BME280;51039;49.696;10.808;2023-06-26T01:57:30;98350.72;;;16.15;88.73
64078;BME280;51039;49.696;10.808;2023-06-26T01:59:56;98354.22;;;16.15;88.84
64078;BME280;51039;49.696;10.808;2023-06-26T02:02:24;98350.16;;;16.13;88.91
64078;BME280;51039;49.696;10.808;2023-06-26T02:04:49;98350.06;;;16.07;88.90
64078;BME280;51039;49.696;10.808;2023-06-26T02:07:15;98347.06;;;16.04;89.06
64078;BME280;51039;49.696;10.808;2023-06-26T02:09:41;98351.13;;;16.06;89.05
64078;BME280;51039;49.696;10.808;2023-06-26T02:12:06;98354.28;;;16.03;89.30
64078;BME280;51039;49.696;10.808;2023-06-26T02:14:32;98357.06;;;15.97;89.44
64078;BME280;51039;49.696;10.808;2023-06-26T02:16:58;98358.38;;;15.94;89.55
64078;BME280;51039;49.696;10.808;2023-06-26T02:19:23;98364.19;;;15.91;90.00
64078;BME280;51039;49.696;10.808;2023-06-26T02:21:50;98361.84;;;15.95;90.42
64078;BME280;51039;49.696;10.808;2023-06-26T02:24:15;98354.16;;;15.98;90.32
64078;BME280;51039;49.696;10.808;2023-06-26T02:26:41;98351.97;;;15.95;90.23
64078;BME280;51039;49.696;10.808;2023-06-26T02:29:07;98353.72;;;15.89;90.70
64078;BME280;51039;49.696;10.808;2023-06-26T02:31:32;98356.19;;;15.79;91.38
64078;BME280;51039;49.696;10.808;2023-06-26T02:33:58;98352.50;;;15.80;91.40
64078;BME280;51039;49.696;10.808;2023-06-26T02:36:23;98346.09;;;15.69;91.59
64078;BME280;51039;49.696;10.808;2023-06-26T02:38:48;98349.94;;;15.74;91.73
64078;BME280;51039;49.696;10.808;2023-06-26T02:41:13;98338.53;;;15.66;91.62
64078;BME280;51039;49.696;10.808;2023-06-26T02:43:39;98340.63;;;15.64;91.59
64078;BME280;51039;49.696;10.808;2023-06-26T02:46:04;98349.13;;;15.61;91.59
64078;BME280;51039;49.696;10.808;2023-06-26T02:48:29;98342.06;;;15.55;92.34
64078;BME280;51039;49.696;10.808;2023-06-26T02:50:55;98339.97;;;15.57;92.39
64078;BME280;51039;49.696;10.808;2023-06-26T02:53:20;98348.22;;;15.56;92.92
64078;BME280;51039;49.696;10.808;2023-06-26T02:55:45;98342.06;;;15.55;93.12
64078;BME280;51039;49.696;10.808;2023-06-26T02:58:12;98342.06;;;15.55;93.13
64078;BME280;51039;49.696;10.808;2023-06-26T03:00:38;98347.19;;;15.45;93.14
64078;BME280;51039;49.696;10.808;2023-06-26T03:03:06;98343.25;;;15.36;93.56
64078;BME280;51039;49.696;10.808;2023-06-26T03:05:31;98344.06;;;15.36;93.50
64078;BME280;51039;49.696;10.808;2023-06-26T03:07:57;98336.88;;;15.37;93.56
64078;BME280;51039;49.696;10.808;2023-06-26T03:10:22;98336.28;;;15.46;92.93
64078;BME280;51039;49.696;10.808;2023-06-26T03:12:47;98344.63;;;15.50;92.46
64078;BME280;51039;49.696;10.808;2023-06-26T03:15:13;98343.09;;;15.54;92.39
64078;BME280;51039;49.696;10.808;2023-06-26T03:17:39;98333.00;;;15.56;92.52
64078;BME280;51039;49.696;10.808;2023-06-26T03:20:04;98335.22;;;15.59;92.73
64078;BME280;51039;49.696;10.808;2023-06-26T03:22:32;98336.94;;;15.65;93.42
64078;BME280;51039;49.696;10.808;2023-06-26T03:24:57;98337.38;;;15.74;94.55
64078;BME280;51039;49.696;10.808;2023-06-26T03:27:23;98338.88;;;15.82;94.11
64078;BME280;51039;49.696;10.808;2023-06-26T03:29:48;98344.34;;;15.87;95.82
64078;BME280;51039;49.696;10.808;2023-06-26T03:32:13;98343.59;;;15.92;95.04
64078;BME280;51039;49.696;10.808;2023-06-26T03:34:39;98340.34;;;16.01;93.45
64078;BME280;51039;49.696;10.808;2023-06-26T03:37:04;98342.88;;;16.08;92.84
64078;BME280;51039;49.696;10.808;2023-06-26T03:39:29;98333.09;;;16.14;92.29
64078;BME280;51039;49.696;10.808;2023-06-26T03:41:55;98341.50;;;16.22;92.16
64078;BME280;51039;49.696;10.808;2023-06-26T03:44:22;98339.50;;;16.29;91.58
64078;BME280;51039;49.696;10.808;2023-06-26T03:46:47;98336.19;;;16.39;91.00
64078;BME280;51039;49.696;10.808;2023-06-26T03:49:12;98336.97;;;16.52;90.59
64078;BME280;51039;49.696;10.808;2023-06-26T03:51:38;98336.66;;;16.65;89.67
64078;BME280;51039;49.696;10.808;2023-06-26T03:54:03;98336.00;;;16.75;89.56
64078;BME280;51039;49.696;10.808;2023-06-26T03:56:28;98332.09;;;16.99;88.51
64078;BME280;51039;49.696;10.808;2023-06-26T03:58:54;98334.53;;;17.18;87.51
64078;BME280;51039;49.696;10.808;2023-06-26T04:01:19;98329.38;;;17.33;86.67
64078;BME280;51039;49.696;10.808;2023-06-26T04:03:46;98334.78;;;17.55;85.90
64078;BME280;51039;49.696;10.808;2023-06-26T04:06:11;98336.53;;;17.89;83.82
64078;BME280;51039;49.696;10.808;2023-06-26T04:08:37;98340.25;;;18.10;82.16
64078;BME280;51039;49.696;10.808;2023-06-26T04:11:02;98343.00;;;18.47;81.23
64078;BME280;51039;49.696;10.808;2023-06-26T04:13:27;98339.25;;;19.55;75.41
64078;BME280;51039;49.696;10.808;2023-06-26T04:15:53;98342.19;;;20.27;72.82
64078;BME280;51039;49.696;10.808;2023-06-26T04:18:18;98343.75;;;21.56;67.58
64078;BME280;51039;49.696;10.808;2023-06-26T04:21:03;98343.78;;;22.56;63.27
64078;BME280;51039;49.696;10.808;2023-06-26T04:23:33;98342.94;;;23.24;60.38
64078;BME280;51039;49.696;10.808;2023-06-26T04:25:58;98335.94;;;23.71;59.26
64078;BME280;51039;49.696;10.808;2023-06-26T04:28:24;98337.34;;;23.88;56.72
64078;BME280;51039;49.696;10.808;2023-06-26T04:30:49;98337.16;;;24.03;56.69
64078;BME280;51039;49.696;10.808;2023-06-26T04:33:15;98333.47;;;23.94;57.46
64078;BME280;51039;49.696;10.808;2023-06-26T04:35:40;98331.06;;;24.68;54.63
64078;BME280;51039;49.696;10.808;2023-06-26T04:38:05;98329.94;;;25.49;52.66
64078;BME280;51039;49.696;10.808;2023-06-26T04:40:31;98328.72;;;25.97;51.31
64078;BME280;51039;49.696;10.808;2023-06-26T04:42:56;98332.50;;;26.69;49.73
64078;BME280;51039;49.696;10.808;2023-06-26T04:45:21;98328.97;;;27.22;47.85
64078;BME280;51039;49.696;10.808;2023-06-26T04:47:47;98330.50;;;27.37;47.16
64078;BME280;51039;49.696;10.808;2023-06-26T04:50:12;98334.78;;;27.87;46.08
64078;BME280;51039;49.696;10.808;2023-06-26T04:52:37;98338.66;;;27.86;45.48
64078;BME280;51039;49.696;10.808;2023-06-26T04:55:03;98342.09;;;28.44;44.15
64078;BME280;51039;49.696;10.808;2023-06-26T04:57:28;98331.84;;;28.75;43.74
64078;BME280;51039;49.696;10.808;2023-06-26T04:59:54;98324.06;;;29.04;43.31
64078;BME280;51039;49.696;10.808;2023-06-26T05:02:19;98337.31;;;29.31;42.42
64078;BME280;51039;49.696;10.808;2023-06-26T05:04:44;98340.84;;;29.32;42.66
64078;BME280;51039;49.696;10.808;2023-06-26T05:07:11;98337.50;;;30.15;40.52
64078;BME280;51039;49.696;10.808;2023-06-26T05:09:36;98332.81;;;30.58;38.68
64078;BME280;51039;49.696;10.808;2023-06-26T05:12:02;98333.00;;;31.07;38.14
64078;BME280;51039;49.696;10.808;2023-06-26T05:14:27;98338.59;;;30.99;37.93
64078;BME280;51039;49.696;10.808;2023-06-26T05:16:53;98335.91;;;31.60;36.13
64078;BME280;51039;49.696;10.808;2023-06-26T05:19:18;98328.28;;;32.31;34.39
64078;BME280;51039;49.696;10.808;2023-06-26T05:21:44;98324.06;;;32.34;34.64
64078;BME280;51039;49.696;10.808;2023-06-26T05:24:10;98332.09;;;32.83;33.01
64078;BME280;51039;49.696;10.808;2023-06-26T05:26:38;98339.31;;;33.03;31.79
64078;BME280;51039;49.696;10.808;2023-06-26T05:29:03;98329.69;;;33.25;32.82
64078;BME280;51039;49.696;10.808;2023-06-26T05:31:30;98334.28;;;34.04;30.58
64078;BME280;51039;49.696;10.808;2023-06-26T05:33:58;98331.00;;;33.63;31.57
64078;BME280;51039;49.696;10.808;2023-06-26T05:36:27;98327.09;;;33.80;31.32
64078;BME280;51039;49.696;10.808;2023-06-26T05:38:54;98330.16;;;34.69;29.65
64078;BME280;51039;49.696;10.808;2023-06-26T05:41:21;98323.56;;;33.99;30.52
64078;BME280;51039;49.696;10.808;2023-06-26T05:43:46;98323.81;;;33.59;31.45
64078;BME280;51039;49.696;10.808;2023-06-26T05:46:12;98313.63;;;33.59;30.95
64078;BME280;51039;49.696;10.808;2023-06-26T05:48:37;98317.47;;;33.23;31.55
64078;BME280;51039;49.696;10.808;2023-06-26T05:51:03;98314.13;;;34.75;29.88
64078;BME280;51039;49.696;10.808;2023-06-26T05:53:29;98318.38;;;35.38;29.42
64078;BME280;51039;49.696;10.808;2023-06-26T05:55:55;98313.38;;;34.97;28.90
64078;BME280;51039;49.696;10.808;2023-06-26T05:58:20;98312.59;;;34.58;30.47
64078;BME280;51039;49.696;10.808;2023-06-26T06:00:48;98317.28;;;35.19;28.71
64078;BME280;51039;49.696;10.808;2023-06-26T06:03:14;98319.19;;;36.19;27.25
64078;BME280;51039;49.696;10.808;2023-06-26T06:05:39;98314.56;;;37.01;26.69
64078;BME280;51039;49.696;10.808;2023-06-26T06:08:04;98318.78;;;37.29;25.52
64078;BME280;51039;49.696;10.808;2023-06-26T06:10:30;98314.00;;;37.19;25.67
64078;BME280;51039;49.696;10.808;2023-06-26T06:12:55;98316.41;;;37.79;24.87
64078;BME280;51039;49.696;10.808;2023-06-26T06:15:20;98320.50;;;37.44;25.23
64078;BME280;51039;49.696;10.808;2023-06-26T06:17:46;98316.25;;;37.58;25.68
64078;BME280;51039;49.696;10.808;2023-06-26T06:20:11;98313.47;;;38.20;24.74
64078;BME280;51039;49.696;10.808;2023-06-26T06:22:36;98310.09;;;37.27;25.87
64078;BME280;51039;49.696;10.808;2023-06-26T06:25:02;98309.09;;;37.49;25.32
64078;BME280;51039;49.696;10.808;2023-06-26T06:27:27;98314.38;;;38.53;24.46
64078;BME280;51039;49.696;10.808;2023-06-26T06:29:53;98312.47;;;39.94;22.45
64078;BME280;51039;49.696;10.808;2023-06-26T06:32:18;98310.94;;;39.68;23.21
64078;BME280;51039;49.696;10.808;2023-06-26T06:34:44;98306.13;;;40.00;22.74
64078;BME280;51039;49.696;10.808;2023-06-26T06:37:09;98311.41;;;38.06;24.19
64078;BME280;51039;49.696;10.808;2023-06-26T06:39:34;98319.22;;;38.92;24.17
64078;BME280;51039;49.696;10.808;2023-06-26T06:42:00;98306.59;;;39.27;23.31
64078;BME280;51039;49.696;10.808;2023-06-26T06:44:25;98311.38;;;39.44;22.86
64078;BME280;51039;49.696;10.808;2023-06-26T06:46:50;98318.56;;;40.55;22.81
64078;BME280;51039;49.696;10.808;2023-06-26T06:49:16;98316.09;;;41.35;20.87
64078;BME280;51039;49.696;10.808;2023-06-26T06:51:41;98309.94;;;41.54;21.31
64078;BME280;51039;49.696;10.808;2023-06-26T06:54:06;98309.53;;;41.56;20.59
64078;BME280;51039;49.696;10.808;2023-06-26T06:56:32;98311.69;;;41.37;21.46
64078;BME280;51039;49.696;10.808;2023-06-26T06:58:57;98307.28;;;41.40;20.68
64078;BME280;51039;49.696;10.808;2023-06-26T07:01:23;98305.50;;;42.64;20.15
64078;BME280;51039;49.696;10.808;2023-06-26T07:03:48;98304.34;;;42.88;19.36
64078;BME280;51039;49.696;10.808;2023-06-26T07:06:13;98290.06;;;41.07;20.99
64078;BME280;51039;49.696;10.808;2023-06-26T07:08:39;98291.63;;;41.95;20.80
64078;BME280;51039;49.696;10.808;2023-06-26T07:11:04;98295.94;;;41.99;20.17
64078;BME280;51039;49.696;10.808;2023-06-26T07:13:29;98291.41;;;42.16;20.06
64078;BME280;51039;49.696;10.808;2023-06-26T07:15:54;98296.56;;;42.76;19.96
64078;BME280;51039;49.696;10.808;2023-06-26T07:18:20;98298.25;;;42.70;20.05
64078;BME280;51039;49.696;10.808;2023-06-26T07:20:45;98289.91;;;42.39;19.32
64078;BME280;51039;49.696;10.808;2023-06-26T07:23:10;98291.22;;;41.13;20.50
64078;BME280;51039;49.696;10.808;2023-06-26T07:25:36;98293.66;;;40.48;22.44
64078;BME280;51039;49.696;10.808;2023-06-26T07:28:01;98292.31;;;42.68;19.74
64078;BME280;51039;49.696;10.808;2023-06-26T07:30:27;98292.28;;;42.41;19.13
64078;BME280;51039;49.696;10.808;2023-06-26T07:32:52;98288.66;;;40.88;20.75
64078;BME280;51039;49.696;10.808;2023-06-26T07:35:18;98292.75;;;39.31;22.94
64078;BME280;51039;49.696;10.808;2023-06-26T07:37:43;98278.88;;;41.22;20.84
64078;BME280;51039;49.696;10.808;2023-06-26T07:40:09;98280.09;;;42.62;19.45
64078;BME280;51039;49.696;10.808;2023-06-26T07:42:35;98283.38;;;41.88;20.45
64078;BME280;51039;49.696;10.808;2023-06-26T07:45:00;98278.50;;;40.60;20.49
64078;BME280;51039;49.696;10.808;2023-06-26T07:47:25;98282.31;;;42.12;19.86
64078;BME280;51039;49.696;10.808;2023-06-26T07:49:51;98280.88;;;42.86;20.20
64078;BME280;51039;49.696;10.808;2023-06-26T07:52:17;98276.72;;;42.47;19.60
64078;BME280;51039;49.696;10.808;2023-06-26T07:54:43;98275.84;;;43.28;19.33
64078;BME280;51039;49.696;10.808;2023-06-26T07:57:08;98275.84;;;43.28;18.63
64078;BME280;51039;49.696;10.808;2023-06-26T07:59:34;98280.56;;;43.55;18.87
64078;BME280;51039;49.696;10.808;2023-06-26T08:02:00;98275.78;;;43.08;18.52
64078;BME280;51039;49.696;10.808;2023-06-26T08:04:26;98271.06;;;41.89;20.14
64078;BME280;51039;49.696;10.808;2023-06-26T08:06:55;98267.00;;;42.28;19.28
64078;BME280;51039;49.696;10.808;2023-06-26T08:09:22;98272.31;;;42.73;18.91
64078;BME280;51039;49.696;10.808;2023-06-26T08:11:49;98261.72;;;41.30;19.74
64078;BME280;51039;49.696;10.808;2023-06-26T08:14:15;98271.94;;;41.78;19.67
64078;BME280;51039;49.696;10.808;2023-06-26T08:16:41;98278.88;;;42.32;19.15
64078;BME280;51039;49.696;10.808;2023-06-26T08:19:07;98266.97;;;41.97;19.24
64078;BME280;51039;49.696;10.808;2023-06-26T08:21:33;98271.31;;;41.67;19.64
64078;BME280;51039;49.696;10.808;2023-06-26T08:23:58;98278.34;;;42.13;19.20
64078;BME280;51039;49.696;10.808;2023-06-26T08:26:23;98270.56;;;41.59;18.68
64078;BME280;51039;49.696;10.808;2023-06-26T08:28:49;98273.22;;;41.74;20.72
64078;BME280;51039;49.696;10.808;2023-06-26T08:31:14;98266.25;;;42.24;20.04
64078;BME280;51039;49.696;10.808;2023-06-26T08:33:40;98272.00;;;42.09;20.02
64078;BME280;51039;49.696;10.808;2023-06-26T08:36:06;98264.94;;;42.01;19.59
64078;BME280;51039;49.696;10.808;2023-06-26T08:38:31;98265.94;;;40.37;19.96
64078;BME280;51039;49.696;10.808;2023-06-26T08:40:56;98266.59;;;39.64;20.89
64078;BME280;51039;49.696;10.808;2023-06-26T08:43:21;98269.28;;;39.82;21.83
64078;BME280;51039;49.696;10.808;2023-06-26T08:45:47;98259.44;;;40.66;19.66
64078;BME280;51039;49.696;10.808;2023-06-26T08:48:16;98262.66;;;41.09;19.72
64078;BME280;51039;49.696;10.808;2023-06-26T08:50:42;98257.94;;;41.89;19.35
64078;BME280;51039;49.696;10.808;2023-06-26T08:55:41;98266.91;;;39.88;21.09
64078;BME280;51039;49.696;10.808;2023-06-26T08:58:07;98259.06;;;41.12;19.11
64078;BME280;51039;49.696;10.808;2023-06-26T09:00:33;98258.47;;;42.11;19.51
64078;BME280;51039;49.696;10.808;2023-06-26T09:02:59;98254.19;;;42.34;18.97
64078;BME280;51039;49.696;10.808;2023-06-26T09:05:25;98260.25;;;42.29;19.62
64078;BME280;51039;49.696;10.808;2023-06-26T09:07:52;98252.50;;;42.40;19.21
64078;BME280;51039;49.696;10.808;2023-06-26T09:10:20;98259.97;;;42.50;18.85
64078;BME280;51039;49.696;10.808;2023-06-26T09:12:46;98253.47;;;41.95;18.61
64078;BME280;51039;49.696;10.808;2023-06-26T09:15:14;98252.13;;;40.86;19.64
64078;BME280;51039;49.696;10.808;2023-06-26T09:17:40;98256.25;;;40.67;19.13
64078;BME280;51039;49.696;10.808;2023-06-26T09:20:07;98252.81;;;40.41;19.84
64078;BME280;51039;49.696;10.808;2023-06-26T09:22:33;98251.09;;;40.66;19.99
64078;BME280;51039;49.696;10.808;2023-06-26T09:25:02;98242.28;;;41.68;18.69
64078;BME280;51039;49.696;10.808;2023-06-26T09:27:28;98244.38;;;41.19;18.63
64078;BME280;51039;49.696;10.808;2023-06-26T09:29:53;98246.22;;;41.71;19.62
64078;BME280;51039;49.696;10.808;2023-06-26T09:32:21;98244.00;;;42.24;19.17
64078;BME280;51039;49.696;10.808;2023-06-26T09:34:51;98236.50;;;41.86;19.78
64078;BME280;51039;49.696;10.808;2023-06-26T09:37:18;98243.94;;;41.17;20.15
64078;BME280;51039;49.696;10.808;2023-06-26T09:39:43;98235.72;;;41.48;19.85
64078;BME280;51039;49.696;10.808;2023-06-26T09:42:09;98244.53;;;41.81;18.78
64078;BME280;51039;49.696;10.808;2023-06-26T09:44:34;98235.94;;;40.81;20.31
64078;BME280;51039;49.696;10.808;2023-06-26T09:47:01;98245.00;;;40.89;18.81
64078;BME280;51039;49.696;10.808;2023-06-26T09:49:30;98234.53;;;40.48;20.44
64078;BME280;51039;49.696;10.808;2023-06-26T09:51:56;98238.78;;;39.93;20.41
64078;BME280;51039;49.696;10.808;2023-06-26T09:54:21;98238.06;;;39.67;20.76
64078;BME280;51039;49.696;10.808;2023-06-26T09:56:48;98230.63;;;38.92;20.90
64078;BME280;51039;49.696;10.808;2023-06-26T09:59:14;98235.16;;;40.07;19.79
64078;BME280;51039;49.696;10.808;2023-06-26T10:01:40;98234.66;;;40.22;20.63
64078;BME280;51039;49.696;10.808;2023-06-26T10:04:06;98220.50;;;40.02;20.72
64078;BME280;51039;49.696;10.808;2023-06-26T10:06:36;98221.47;;;40.48;19.96
64078;BME280;51039;49.696;10.808;2023-06-26T10:09:03;98224.25;;;40.48;19.64
64078;BME280;51039;49.696;10.808;2023-06-26T10:11:35;98226.38;;;40.19;21.06
64078;BME280;51039;49.696;10.808;2023-06-26T10:14:05;98225.38;;;39.66;20.49
64078;BME280;51039;49.696;10.808;2023-06-26T10:16:32;98218.53;;;40.03;20.95
64078;BME280;51039;49.696;10.808;2023-06-26T10:19:01;98223.41;;;40.51;20.48
64078;BME280;51039;49.696;10.808;2023-06-26T10:21:29;98209.44;;;37.90;20.58
64078;BME280;51039;49.696;10.808;2023-06-26T10:23:57;98209.91;;;38.07;21.42
64078;BME280;51039;49.696;10.808;2023-06-26T10:26:24;98211.19;;;38.42;20.87
64078;BME280;51039;49.696;10.808;2023-06-26T10:28:51;98211.25;;;39.10;19.94
64078;BME280;51039;49.696;10.808;2023-06-26T10:31:22;98217.13;;;38.55;19.08
64078;BME280;51039;49.696;10.808;2023-06-26T10:33:51;98209.44;;;37.90;19.41
64078;BME280;51039;49.696;10.808;2023-06-26T10:36:18;98216.00;;;39.10;20.30
64078;BME280;51039;49.696;10.808;2023-06-26T10:38:51;98212.03;;;39.14;19.64
64078;BME280;51039;49.696;10.808;2023-06-26T10:41:22;98205.66;;;39.28;18.87
64078;BME280;51039;49.696;10.808;2023-06-26T10:43:51;98209.97;;;38.28;19.71
64078;BME280;51039;49.696;10.808;2023-06-26T10:49:18;98211.63;;;38.87;20.08
64078;BME280;51039;49.696;10.808;2023-06-26T10:51:48;98213.19;;;37.53;21.09
64078;BME280;51039;49.696;10.808;2023-06-26T10:54:15;98207.38;;;37.73;21.20
64078;BME280;51039;49.696;10.808;2023-06-26T10:56:44;98211.53;;;37.38;21.13
64078;BME280;51039;49.696;10.808;2023-06-26T11:02:03;98205.66;;;36.95;21.85
64078;BME280;51039;49.696;10.808;2023-06-26T11:09:59;98198.97;;;36.51;22.24
64078;BME280;51039;49.696;10.808;2023-06-26T11:12:39;98199.84;;;35.88;23.15
64078;BME280;51039;49.696;10.808;2023-06-26T11:17:35;98184.78;;;36.15;23.14
64078;BME280;51039;49.696;10.808;2023-06-26T11:20:02;98192.88;;;35.97;23.76
64078;BME280;51039;49.696;10.808;2023-06-26T11:22:30;98187.50;;;36.12;23.85
64078;BME280;51039;49.696;10.808;2023-06-26T11:24:59;98191.88;;;35.79;24.48
64078;BME280;51039;49.696;10.808;2023-06-26T11:27:24;98197.28;;;35.72;23.52
64078;BME280;51039;49.696;10.808;2023-06-26T11:30:06;98185.22;;;35.53;23.67
64078;BME280;51039;49.696;10.808;2023-06-26T11:32:34;98185.50;;;35.75;22.86
64078;BME280;51039;49.696;10.808;2023-06-26T11:34:59;98183.22;;;35.81;23.01
64078;BME280;51039;49.696;10.808;2023-06-26T11:37:25;98176.94;;;35.80;23.22
64078;BME280;51039;49.696;10.808;2023-06-26T11:39:50;98181.72;;;35.87;23.15
64078;BME280;51039;49.696;10.808;2023-06-26T11:42:17;98181.81;;;35.94;23.79
64078;BME280;51039;49.696;10.808;2023-06-26T11:44:43;98178.28;;;35.97;23.45
64078;BME280;51039;49.696;10.808;2023-06-26T11:47:12;98176.66;;;35.62;24.27
64078;BME280;51039;49.696;10.808;2023-06-26T11:49:39;98171.31;;;35.73;22.43
64078;BME280;51039;49.696;10.808;2023-06-26T11:52:07;98174.28;;;36.25;23.68
64078;BME280;51039;49.696;10.808;2023-06-26T11:54:32;98167.66;;;35.99;23.20
64078;BME280;51039;49.696;10.808;2023-06-26T11:56:58;98166.56;;;35.43;22.53
64078;BME280;51039;49.696;10.808;2023-06-26T11:59:32;98167.16;;;35.86;24.03
64078;BME280;51039;49.696;10.808;2023-06-26T12:02:08;98170.75;;;34.57;23.59
64078;BME280;51039;49.696;10.808;2023-06-26T12:04:35;98165.56;;;35.25;23.02
64078;BME280;51039;49.696;10.808;2023-06-26T12:07:04;98171.16;;;35.05;24.75
64078;BME280;51039;49.696;10.808;2023-06-26T12:09:33;98173.53;;;35.33;23.66
64078;BME280;51039;49.696;10.808;2023-06-26T12:11:58;98165.97;;;35.27;24.98
64078;BME280;51039;49.696;10.808;2023-06-26T12:14:24;98155.09;;;35.11;24.58
64078;BME280;51039;49.696;10.808;2023-06-26T12:16:51;98158.72;;;35.42;24.85
64078;BME280;51039;49.696;10.808;2023-06-26T12:19:17;98160.72;;;35.18;25.08
64078;BME280;51039;49.696;10.808;2023-06-26T12:21:46;98161.63;;;35.26;24.87
64078;BME280;51039;49.696;10.808;2023-06-26T12:24:17;98159.53;;;34.92;24.68
64078;BME280;51039;49.696;10.808;2023-06-26T12:26:44;98165.03;;;34.92;25.71
64078;BME280;51039;49.696;10.808;2023-06-26T12:29:12;98153.97;;;34.89;25.87
64078;BME280;51039;49.696;10.808;2023-06-26T12:31:42;98157.41;;;34.59;26.22
64078;BME280;51039;49.696;10.808;2023-06-26T12:34:13;98154.13;;;34.73;26.76
64078;BME280;51039;49.696;10.808;2023-06-26T12:36:43;98155.53;;;35.13;25.37
64078;BME280;51039;49.696;10.808;2023-06-26T12:39:12;98151.44;;;35.30;24.96
64078;BME280;51039;49.696;10.808;2023-06-26T12:41:51;98145.00;;;35.49;25.59
64078;BME280;51039;49.696;10.808;2023-06-26T12:44:28;98146.34;;;35.92;25.10
64078;BME280;51039;49.696;10.808;2023-06-26T12:46:56;98144.97;;;35.75;26.04
64078;BME280;51039;49.696;10.808;2023-06-26T12:49:33;98141.16;;;35.53;25.83
64078;BME280;51039;49.696;10.808;2023-06-26T12:52:00;98145.13;;;35.03;25.86
64078;BME280;51039;49.696;10.808;2023-06-26T12:54:27;98141.97;;;35.27;26.04
64078;BME280;51039;49.696;10.808;2023-06-26T12:56:53;98152.25;;;35.04;26.85
64078;BME280;51039;49.696;10.808;2023-06-26T12:59:18;98145.09;;;34.72;26.50
64078;BME280;51039;49.696;10.808;2023-06-26T13:01:44;98144.22;;;34.02;27.35
64078;BME280;51039;49.696;10.808;2023-06-26T13:04:09;98135.63;;;33.84;27.73
64078;BME280;51039;49.696;10.808;2023-06-26T13:06:35;98148.94;;;33.63;28.31
64078;BME280;51039;49.696;10.808;2023-06-26T13:09:01;98149.63;;;33.60;29.14